Time;durP1;ratioP1;P1;durP2;ratioP2;P2;SDS_P1;SDS_P2;PMS_P1;PMS_P2;Temp;Humidity;BMP_temperature;BMP_pressure;BME280_temperature;BME280_humidity;BME280_pressure;Samples;Min_cycle;Max_cycle;Signal;HPM_P1;HPM_P2
2022/02/15 00:00:32;;;;;;;2.93;2.40;;;6.90;99.90;;;;;;5018179;28;20190;-88
2022/02/15 00:02:58;;;;;;;2.40;2.20;;;6.80;99.90;;;;;;5015989;28;20255;-87
2022/02/15 00:05:24;;;;;;;3.57;2.30;;;6.60;99.90;;;;;;5011514;28;20217;-87
2022/02/15 00:07:49;;;;;;;2.20;2.00;;;6.60;99.90;;;;;;5016600;28;20214;-88
2022/02/15 00:10:15;;;;;;;2.73;2.20;;;6.50;99.90;;;;;;5017765;28;20189;-88
2022/02/15 00:12:41;;;;;;;2.80;2.30;;;6.40;99.90;;;;;;5020745;28;20189;-88
2022/02/15 00:15:09;;;;;;;2.30;2.10;;;6.40;99.90;;;;;;5012604;28;20194;-87
2022/02/15 00:17:36;;;;;;;2.63;2.10;;;6.30;99.90;;;;;;5015171;28;20221;-87
2022/02/15 00:20:04;;;;;;;2.13;1.97;;;6.30;99.90;;;;;;5020489;28;20198;-87
2022/02/15 00:22:30;;;;;;;2.30;2.10;;;6.30;99.90;;;;;;5016820;28;20186;-87
2022/02/15 00:24:56;;;;;;;2.53;2.33;;;6.20;99.90;;;;;;5018220;28;20190;-87
2022/02/15 00:27:22;;;;;;;2.40;2.20;;;6.40;99.90;;;;;;5025057;28;20217;-87
2022/02/15 00:29:47;;;;;;;2.57;2.30;;;6.50;99.90;;;;;;5018500;28;20225;-87
2022/02/15 00:32:13;;;;;;;2.27;2.07;;;6.60;99.90;;;;;;5024002;28;20204;-87
2022/02/15 00:34:39;;;;;;;2.37;2.17;;;6.70;99.90;;;;;;5028281;28;20190;-88
2022/02/15 00:37:05;;;;;;;3.07;2.23;;;6.70;99.90;;;;;;5019070;28;20229;-87
2022/02/15 00:39:31;;;;;;;2.23;2.03;;;6.80;99.90;;;;;;5027441;28;20668;-88
2022/02/15 00:41:56;;;;;;;2.27;2.07;;;6.80;99.90;;;;;;5026356;28;20226;-88
2022/02/15 00:44:23;;;;;;;2.93;2.43;;;6.90;99.90;;;;;;5026333;28;20201;-87
2022/02/15 00:46:49;;;;;;;2.77;2.40;;;6.90;99.90;;;;;;5025963;28;20231;-87
2022/02/15 00:49:15;;;;;;;2.23;2.03;;;6.90;99.90;;;;;;5029483;28;20194;-87
2022/02/15 00:51:40;;;;;;;2.37;2.07;;;6.90;99.90;;;;;;5017207;28;20213;-88
2022/02/15 00:54:06;;;;;;;2.30;2.10;;;6.90;99.90;;;;;;5016275;28;20198;-88
2022/02/15 00:56:32;;;;;;;2.87;2.20;;;6.90;99.90;;;;;;5009450;28;20202;-88
2022/02/15 00:58:58;;;;;;;2.00;1.90;;;6.90;99.90;;;;;;5032942;28;20248;-88
2022/02/15 01:01:23;;;;;;;1.90;1.80;;;6.90;99.90;;;;;;5026945;28;20289;-87
2022/02/15 01:03:49;;;;;;;2.53;2.30;;;6.90;99.90;;;;;;5024498;28;20190;-87
2022/02/15 01:06:15;;;;;;;2.17;1.87;;;6.90;99.90;;;;;;5029615;28;20200;-87
2022/02/15 01:08:42;;;;;;;2.70;1.97;;;6.90;99.90;;;;;;5029199;28;20236;-87
2022/02/15 01:11:09;;;;;;;2.47;1.93;;;6.90;99.90;;;;;;5033521;28;20346;-87
2022/02/15 01:13:35;;;;;;;2.30;2.10;;;6.90;99.90;;;;;;5047266;28;20614;-87
2022/02/15 01:16:01;;;;;;;2.93;2.00;;;6.90;99.90;;;;;;5030642;28;20285;-87
2022/02/15 01:18:28;;;;;;;2.20;2.00;;;6.80;99.90;;;;;;5012839;28;20284;-87
2022/02/15 01:20:55;;;;;;;2.57;2.20;;;6.80;99.90;;;;;;5040871;28;20234;-87
2022/02/15 01:23:21;;;;;;;2.60;2.23;;;6.60;99.90;;;;;;5029289;28;20181;-87
2022/02/15 01:25:47;;;;;;;2.30;1.93;;;6.50;99.90;;;;;;5032912;28;20198;-87
2022/02/15 01:28:13;;;;;;;3.47;2.27;;;6.30;99.90;;;;;;5017738;28;20251;-87
2022/02/15 01:30:38;;;;;;;2.20;1.97;;;6.40;99.90;;;;;;5026508;28;20186;-87
2022/02/15 01:33:04;;;;;;;2.63;1.87;;;6.30;99.90;;;;;;5024073;28;20228;-87
2022/02/15 01:35:30;;;;;;;2.23;2.03;;;6.20;99.90;;;;;;5022927;28;20210;-87
2022/02/15 01:37:56;;;;;;;2.40;2.20;;;6.20;99.90;;;;;;5020869;28;20247;-87
2022/02/15 01:40:22;;;;;;;1.87;1.77;;;6.10;99.90;;;;;;5015466;28;20190;-87
2022/02/15 01:42:47;;;;;;;2.00;1.80;;;6.10;99.90;;;;;;5018293;28;20216;-87
2022/02/15 01:45:15;;;;;;;2.60;1.87;;;6.20;99.90;;;;;;5020663;28;20568;-87
2022/02/15 01:47:41;;;;;;;2.00;1.80;;;6.20;99.90;;;;;;5015862;28;20558;-87
2022/02/15 01:50:07;;;;;;;2.50;1.83;;;6.30;99.90;;;;;;5018296;28;20194;-87
2022/02/15 01:52:33;;;;;;;3.20;1.90;;;6.60;99.90;;;;;;5049481;28;20197;-88
2022/02/15 01:55:00;;;;;;;2.07;1.70;;;6.60;99.90;;;;;;5019661;28;20204;-88
2022/02/15 01:57:27;;;;;;;2.63;2.00;;;6.80;99.90;;;;;;5021239;28;20214;-87
2022/02/15 01:59:55;;;;;;;3.93;2.03;;;6.80;99.90;;;;;;5022960;28;20229;-87
2022/02/15 02:02:22;;;;;;;1.70;1.60;;;6.90;99.90;;;;;;5020860;28;20196;-86
2022/02/15 02:07:32;;;;;;;2.57;1.60;;;6.90;99.90;;;;;;5014531;28;20298;-86
2022/02/15 02:09:57;;;;;;;2.43;1.83;;;7.00;99.90;;;;;;5018202;28;20221;-87
2022/02/15 02:12:23;;;;;;;2.80;1.97;;;7.00;99.90;;;;;;5017029;28;20186;-87
2022/02/15 02:15:07;;;;;;;2.27;1.90;;;7.10;99.90;;;;;;5019858;28;20448;-87
2022/02/15 02:17:34;;;;;;;4.00;1.83;;;7.10;99.90;;;;;;5015754;28;20273;-86
2022/02/15 02:20:00;;;;;;;4.33;2.03;;;7.00;99.90;;;;;;5018035;28;20181;-86
2022/02/15 02:22:28;;;;;;;3.27;2.10;;;6.90;99.90;;;;;;5016027;28;20186;-86
2022/02/15 02:24:56;;;;;;;2.33;2.13;;;6.80;99.90;;;;;;5023634;28;20565;-87
2022/02/15 02:27:30;;;;;;;3.70;2.17;;;6.80;99.90;;;;;;5023117;28;20213;-86
2022/02/15 02:29:57;;;;;;;3.90;1.97;;;6.80;99.90;;;;;;5021732;28;20197;-86
2022/02/15 02:32:28;;;;;;;3.27;2.17;;;6.80;99.90;;;;;;5021377;28;20194;-86
2022/02/15 02:34:56;;;;;;;3.60;2.23;;;6.80;99.90;;;;;;5012189;28;20627;-86
2022/02/15 02:37:23;;;;;;;2.50;2.00;;;6.80;99.90;;;;;;5018118;28;20222;-86
2022/02/15 02:39:53;;;;;;;4.30;2.10;;;6.90;99.90;;;;;;5017534;28;20185;-86
2022/02/15 02:42:22;;;;;;;5.20;2.50;;;6.90;99.90;;;;;;5016471;28;20197;-87
2022/02/15 02:44:49;;;;;;;2.90;2.10;;;6.90;99.90;;;;;;5013031;28;20194;-87
2022/02/15 02:47:15;;;;;;;4.50;2.40;;;6.90;99.90;;;;;;5020759;28;20226;-87
2022/02/15 02:49:40;;;;;;;3.90;2.20;;;6.80;99.90;;;;;;5020162;28;20248;-86
2022/02/15 02:52:07;;;;;;;4.40;1.90;;;6.80;99.90;;;;;;5010649;28;20183;-86
2022/02/15 02:54:33;;;;;;;4.00;2.53;;;6.80;99.90;;;;;;5021070;28;20542;-87
2022/02/15 02:57:01;;;;;;;2.50;2.20;;;6.80;99.90;;;;;;5019889;28;20723;-86
2022/02/15 02:59:28;;;;;;;3.30;2.30;;;6.80;99.90;;;;;;5019422;28;20189;-86
2022/02/15 03:01:53;;;;;;;4.07;2.23;;;6.80;99.90;;;;;;5020738;28;20197;-87
2022/02/15 03:04:20;;;;;;;4.30;2.30;;;6.80;99.90;;;;;;5018241;28;20261;-86
2022/02/15 03:06:46;;;;;;;4.80;2.40;;;6.80;99.90;;;;;;5009998;28;20258;-87
2022/02/15 03:09:12;;;;;;;2.80;2.37;;;6.90;99.90;;;;;;5024656;28;20193;-86
2022/02/15 03:11:38;;;;;;;4.43;2.47;;;6.90;99.90;;;;;;5017673;28;20225;-86
2022/02/15 03:14:04;;;;;;;2.73;2.50;;;6.90;99.90;;;;;;5015617;28;20193;-87
2022/02/15 03:16:31;;;;;;;3.90;2.43;;;6.80;99.90;;;;;;5006849;28;20206;-86
2022/02/15 03:18:57;;;;;;;5.17;2.63;;;6.70;99.90;;;;;;5013146;28;20286;-87
2022/02/15 03:21:23;;;;;;;2.77;2.17;;;6.70;99.90;;;;;;5021436;28;20217;-87
2022/02/15 03:23:49;;;;;;;5.07;2.57;;;6.70;99.90;;;;;;5019908;28;20181;-86
2022/02/15 03:26:15;;;;;;;2.53;1.90;;;6.80;99.90;;;;;;5023008;28;20185;-87
2022/02/15 03:28:42;;;;;;;3.90;2.53;;;6.70;99.90;;;;;;5021282;28;20225;-87
2022/02/15 03:31:08;;;;;;;3.30;2.23;;;6.60;99.90;;;;;;5012415;28;20197;-87
2022/02/15 03:33:34;;;;;;;3.30;2.30;;;6.50;99.90;;;;;;5041273;28;20214;-86
2022/02/15 03:36:01;;;;;;;5.17;2.50;;;6.70;99.90;;;;;;5016499;28;20214;-86
2022/02/15 03:38:27;;;;;;;4.70;2.43;;;6.80;99.90;;;;;;5017012;28;20233;-86
2022/02/15 03:43:38;;;;;;;3.83;2.33;;;6.60;99.90;;;;;;5022415;28;20678;-86
2022/02/15 03:46:04;;;;;;;2.90;2.60;;;6.50;99.90;;;;;;5018620;28;20216;-86
2022/02/15 03:48:30;;;;;;;3.90;2.40;;;6.50;99.90;;;;;;5018316;28;20218;-86
2022/02/15 03:50:56;;;;;;;5.07;2.50;;;6.50;99.90;;;;;;5013215;28;20201;-86
2022/02/15 03:53:22;;;;;;;4.97;2.90;;;6.50;99.90;;;;;;5011574;28;20212;-86
2022/02/15 03:55:48;;;;;;;2.67;2.37;;;6.50;99.90;;;;;;5020798;28;20213;-86
2022/02/15 03:58:14;;;;;;;3.80;2.17;;;6.50;99.90;;;;;;5015774;28;20616;-87
2022/02/15 04:00:40;;;;;;;5.53;2.13;;;6.70;99.90;;;;;;5014540;28;20184;-87
2022/02/15 04:03:07;;;;;;;3.30;2.10;;;6.70;99.90;;;;;;5011140;28;20217;-87
2022/02/15 04:05:33;;;;;;;2.87;2.00;;;6.70;99.90;;;;;;5014588;28;20212;-86
2022/02/15 04:07:58;;;;;;;2.30;2.10;;;6.80;99.90;;;;;;5017842;28;20221;-86
2022/02/15 04:10:24;;;;;;;3.33;2.10;;;6.90;99.90;;;;;;5008533;28;20620;-87
2022/02/15 04:12:50;;;;;;;3.07;2.13;;;6.80;99.90;;;;;;5011776;28;20204;-87
2022/02/15 04:15:17;;;;;;;4.63;2.60;;;6.80;99.90;;;;;;5012681;28;20194;-86
2022/02/15 04:17:43;;;;;;;2.33;2.13;;;6.80;99.90;;;;;;5010182;28;20218;-87
2022/02/15 04:20:10;;;;;;;3.23;2.00;;;6.60;99.90;;;;;;5015888;28;20249;-87
2022/02/15 04:22:36;;;;;;;3.37;1.90;;;6.50;99.90;;;;;;5012356;28;20728;-86
2022/02/15 04:25:03;;;;;;;2.40;2.20;;;6.50;99.90;;;;;;5008791;28;20217;-87
2022/02/15 04:27:29;;;;;;;3.60;2.17;;;6.40;99.90;;;;;;5014522;28;20550;-87
2022/02/15 04:29:55;;;;;;;2.60;2.40;;;6.30;99.90;;;;;;5013438;28;20190;-87
2022/02/15 04:32:21;;;;;;;4.40;2.20;;;6.30;99.90;;;;;;5019876;28;20189;-87
2022/02/15 04:34:47;;;;;;;2.87;2.10;;;6.20;99.90;;;;;;5015433;28;20198;-87
2022/02/15 04:37:13;;;;;;;2.50;2.00;;;6.30;99.90;;;;;;5020853;28;20202;-87
2022/02/15 04:39:39;;;;;;;3.33;2.03;;;6.40;99.90;;;;;;5025428;28;20186;-87
2022/02/15 04:42:05;;;;;;;3.13;2.30;;;6.50;99.90;;;;;;5025459;28;20241;-87
2022/02/15 04:44:31;;;;;;;5.10;2.27;;;6.50;99.90;;;;;;5011672;28;20270;-87
2022/02/15 04:46:56;;;;;;;4.93;2.20;;;6.50;99.90;;;;;;5040307;28;20205;-87
2022/02/15 04:49:22;;;;;;;2.50;1.90;;;6.60;99.90;;;;;;5018648;28;20185;-87
2022/02/15 04:51:48;;;;;;;2.87;2.40;;;6.60;99.90;;;;;;5018942;28;20216;-87
2022/02/15 04:54:14;;;;;;;2.93;2.20;;;6.50;99.90;;;;;;5018451;28;20244;-87
2022/02/15 04:56:40;;;;;;;2.40;2.20;;;6.40;99.90;;;;;;5021883;28;20704;-86
2022/02/15 04:59:06;;;;;;;4.77;2.23;;;6.50;99.90;;;;;;5014776;28;20210;-86
2022/02/15 05:01:31;;;;;;;2.73;2.30;;;6.50;99.90;;;;;;5019082;28;20189;-86
2022/02/15 05:03:57;;;;;;;4.03;2.40;;;6.60;99.90;;;;;;5014180;28;20731;-87
2022/02/15 05:06:23;;;;;;;3.13;2.10;;;6.50;99.90;;;;;;5015336;28;20276;-87
2022/02/15 05:08:48;;;;;;;2.87;2.57;;;6.40;99.90;;;;;;5016869;28;20213;-87
2022/02/15 05:11:14;;;;;;;6.00;3.20;;;6.40;99.90;;;;;;5020648;28;20208;-86
2022/02/15 05:13:40;;;;;;;3.37;2.20;;;6.20;99.90;;;;;;5022121;28;20205;-87
2022/02/15 05:16:06;;;;;;;3.87;2.63;;;6.30;99.90;;;;;;5020048;28;20202;-87
2022/02/15 05:18:32;;;;;;;4.83;2.93;;;6.20;99.90;;;;;;5028981;28;20209;-87
2022/02/15 05:21:02;;;;;;;3.70;2.90;;;6.20;99.90;;;;;;5014963;28;20213;-86
2022/02/15 05:23:29;;;;;;;3.63;3.20;;;6.10;99.90;;;;;;5022418;28;20224;-87
2022/02/15 05:25:55;;;;;;;3.87;2.70;;;6.10;99.90;;;;;;5006700;28;20202;-87
2022/02/15 05:28:21;;;;;;;5.03;3.20;;;6.00;99.90;;;;;;5020993;28;20228;-87
2022/02/15 05:30:47;;;;;;;4.17;3.50;;;5.90;99.90;;;;;;5005643;28;20201;-87
2022/02/15 05:33:13;;;;;;;4.93;3.27;;;5.90;99.90;;;;;;5005009;28;20208;-87
2022/02/15 05:35:39;;;;;;;7.80;2.83;;;5.90;99.90;;;;;;5004684;28;20224;-87
2022/02/15 05:38:05;;;;;;;3.23;2.90;;;5.90;99.90;;;;;;5000034;28;20265;-87
2022/02/15 05:40:30;;;;;;;4.33;3.47;;;5.80;99.90;;;;;;5009374;28;20201;-87
2022/02/15 05:42:56;;;;;;;5.53;3.40;;;5.80;99.90;;;;;;5007667;28;20197;-88
2022/02/15 05:45:22;;;;;;;6.07;3.93;;;5.80;99.90;;;;;;5007382;28;20201;-87
2022/02/15 05:47:48;;;;;;;6.37;4.00;;;5.70;99.90;;;;;;5019842;28;20204;-88
2022/02/15 05:52:58;;;;;;;4.37;3.80;;;5.80;99.90;;;;;;5039425;28;20235;-88
2022/02/15 05:55:23;;;;;;;4.00;3.60;;;5.80;99.90;;;;;;5017157;28;20607;-88
2022/02/15 05:57:49;;;;;;;5.40;4.00;;;5.80;99.90;;;;;;5007754;28;20275;-88
2022/02/15 06:00:17;;;;;;;5.37;4.17;;;5.80;99.90;;;;;;5007349;28;20248;-88
2022/02/15 06:02:43;;;;;;;4.10;3.60;;;5.80;99.90;;;;;;5013174;28;20651;-88
2022/02/15 06:05:09;;;;;;;4.40;3.80;;;5.90;99.90;;;;;;5016246;28;20225;-88
2022/02/15 06:07:35;;;;;;;4.50;3.63;;;5.90;99.90;;;;;;5018696;28;20210;-88
2022/02/15 06:10:01;;;;;;;6.03;4.07;;;5.80;99.90;;;;;;5012067;28;20245;-88
2022/02/15 06:12:26;;;;;;;3.57;3.27;;;5.80;99.90;;;;;;5000542;28;20255;-87
2022/02/15 06:14:52;;;;;;;4.40;4.00;;;5.80;99.90;;;;;;5015859;28;20439;-87
2022/02/15 06:17:18;;;;;;;5.20;4.07;;;5.80;99.90;;;;;;5017195;28;20237;-87
2022/02/15 06:19:43;;;;;;;4.77;3.53;;;5.90;99.90;;;;;;5008834;28;20261;-87
2022/02/15 06:22:09;;;;;;;4.13;3.73;;;5.90;99.90;;;;;;5009749;28;20217;-87
2022/02/15 06:24:35;;;;;;;4.13;3.73;;;5.90;99.90;;;;;;5015035;28;20279;-87
2022/02/15 06:27:03;;;;;;;4.93;3.97;;;5.90;99.90;;;;;;5008469;28;20205;-87
2022/02/15 06:29:33;;;;;;;4.97;3.57;;;6.00;99.90;;;;;;5011140;28;20185;-87
2022/02/15 06:31:59;;;;;;;5.17;3.70;;;6.00;99.90;;;;;;5010164;28;20204;-87
2022/02/15 06:34:25;;;;;;;3.70;3.40;;;5.90;99.90;;;;;;5011777;28;20269;-87
2022/02/15 06:36:54;;;;;;;5.50;3.37;;;6.00;99.90;;;;;;5014989;28;20222;-87
2022/02/15 06:39:20;;;;;;;4.93;3.57;;;6.00;99.90;;;;;;5013387;28;20653;-87
2022/02/15 06:41:46;;;;;;;3.97;3.30;;;5.90;99.90;;;;;;5016278;28;20195;-88
2022/02/15 06:44:12;;;;;;;3.47;3.13;;;5.90;99.90;;;;;;5018497;28;20264;-88
2022/02/15 06:46:37;;;;;;;4.97;3.80;;;6.00;99.90;;;;;;5012699;28;20203;-87
2022/02/15 06:49:06;;;;;;;6.00;3.50;;;6.00;99.90;;;;;;5011764;28;20241;-88
2022/02/15 06:51:32;;;;;;;4.23;3.60;;;6.00;99.90;;;;;;5007386;28;20189;-88
2022/02/15 06:53:57;;;;;;;4.57;3.93;;;6.20;99.90;;;;;;5010948;28;20197;-87
2022/02/15 06:56:23;;;;;;;4.83;3.20;;;6.10;99.90;;;;;;5009371;28;20727;-87
2022/02/15 06:58:49;;;;;;;4.23;3.77;;;6.00;99.90;;;;;;5007143;28;20221;-88
2022/02/15 07:01:15;;;;;;;7.50;4.40;;;6.10;99.90;;;;;;5012073;28;20416;-87
2022/02/15 07:03:41;;;;;;;4.20;3.80;;;6.10;99.90;;;;;;5009085;28;20202;-87
2022/02/15 07:06:06;;;;;;;4.87;4.13;;;6.00;99.90;;;;;;5013254;28;20193;-87
2022/02/15 07:08:32;;;;;;;5.00;3.80;;;6.00;99.90;;;;;;5012540;28;20217;-87
2022/02/15 07:10:58;;;;;;;4.87;4.00;;;6.00;99.90;;;;;;5011831;28;20193;-88
2022/02/15 07:13:27;;;;;;;4.17;3.77;;;6.10;99.90;;;;;;5019609;28;20260;-87
2022/02/15 07:15:53;;;;;;;4.73;3.63;;;6.10;99.90;;;;;;5008797;28;20596;-87
2022/02/15 07:18:19;;;;;;;4.63;3.83;;;6.10;99.90;;;;;;5007241;28;20268;-87
2022/02/15 07:20:45;;;;;;;6.73;4.20;;;6.00;99.90;;;;;;5025077;28;20280;-87
2022/02/15 07:23:13;;;;;;;5.10;3.70;;;6.00;99.90;;;;;;5003807;28;20293;-87
2022/02/15 07:25:39;;;;;;;4.60;3.70;;;6.20;99.90;;;;;;5011579;28;20707;-87
2022/02/15 07:28:05;;;;;;;5.40;3.57;;;6.20;99.90;;;;;;5008393;28;20502;-87
2022/02/15 07:30:31;;;;;;;6.50;4.20;;;6.20;99.90;;;;;;5014513;28;20276;-87
2022/02/15 07:32:58;;;;;;;4.13;3.73;;;6.10;99.90;;;;;;5013884;28;20194;-87
2022/02/15 07:35:24;;;;;;;6.43;3.73;;;6.20;99.90;;;;;;5009806;28;20591;-87
2022/02/15 07:37:50;;;;;;;5.93;3.77;;;6.20;99.90;;;;;;5012982;28;20220;-87
2022/02/15 07:40:19;;;;;;;4.83;4.00;;;6.10;99.90;;;;;;5013640;28;20192;-87
2022/02/15 07:42:51;;;;;;;4.97;3.90;;;6.10;99.90;;;;;;5042880;28;20182;-87
2022/02/15 07:45:19;;;;;;;6.17;4.43;;;6.20;99.90;;;;;;5013822;28;20205;-87
2022/02/15 07:47:50;;;;;;;5.93;4.43;;;6.10;99.90;;;;;;5014744;28;20201;-87
2022/02/15 07:50:17;;;;;;;7.93;4.97;;;6.10;99.90;;;;;;5012054;28;20201;-87
2022/02/15 07:52:57;;;;;;;5.83;5.10;;;6.10;99.90;;;;;;5013291;28;20192;-87
2022/02/15 07:55:23;;;;;;;6.17;4.83;;;6.10;99.90;;;;;;5013379;28;20173;-87
2022/02/15 07:57:49;;;;;;;6.17;5.00;;;6.20;99.90;;;;;;5015365;28;20232;-87
2022/02/15 08:00:20;;;;;;;5.53;5.03;;;6.20;99.90;;;;;;5012350;28;20213;-87
2022/02/15 08:02:47;;;;;;;5.77;4.63;;;6.30;99.90;;;;;;5014272;28;20193;-86
2022/02/15 08:05:13;;;;;;;6.50;4.80;;;6.40;99.90;;;;;;5013895;28;20255;-86
2022/02/15 08:07:39;;;;;;;6.93;5.10;;;6.40;99.90;;;;;;5013069;28;20221;-86
2022/02/15 08:10:05;;;;;;;5.47;4.87;;;6.40;99.90;;;;;;5014603;28;20197;-87
2022/02/15 08:12:31;;;;;;;5.50;4.80;;;6.30;99.90;;;;;;5017620;28;20228;-87
2022/02/15 08:14:57;;;;;;;6.50;5.63;;;6.40;99.90;;;;;;5014549;28;20192;-87
2022/02/15 08:17:23;;;;;;;6.87;5.07;;;6.40;99.90;;;;;;5013252;28;20300;-86
2022/02/15 08:19:49;;;;;;;5.77;4.90;;;6.40;99.90;;;;;;5015495;28;20220;-86
2022/02/15 08:22:17;;;;;;;5.63;4.77;;;6.60;99.90;;;;;;5014096;28;20186;-87
2022/02/15 08:24:44;;;;;;;5.97;5.37;;;6.50;99.90;;;;;;5014019;28;20281;-87
2022/02/15 08:27:10;;;;;;;5.47;4.83;;;6.50;99.90;;;;;;5014306;28;20708;-87
2022/02/15 08:29:36;;;;;;;5.40;4.87;;;6.60;99.90;;;;;;5018788;28;20515;-86
2022/02/15 08:32:01;;;;;;;5.97;5.37;;;6.60;99.90;;;;;;5012360;28;20700;-87
2022/02/15 08:34:27;;;;;;;7.33;5.73;;;6.50;99.90;;;;;;5006131;28;20223;-86
2022/02/15 08:36:53;;;;;;;8.07;5.60;;;6.40;99.90;;;;;;5015110;28;20231;-85
2022/02/15 08:39:18;;;;;;;6.83;6.13;;;6.50;99.90;;;;;;5015229;28;20182;-87
2022/02/15 08:41:44;;;;;;;5.87;4.83;;;6.60;99.90;;;;;;5005834;28;20209;-86
2022/02/15 08:44:10;;;;;;;6.93;5.23;;;6.70;99.90;;;;;;5003599;28;20200;-86
2022/02/15 08:46:35;;;;;;;6.57;4.77;;;6.80;99.90;;;;;;5004357;28;20531;-86
2022/02/15 08:49:01;;;;;;;5.90;5.20;;;6.80;99.90;;;;;;5008915;28;20232;-86
2022/02/15 08:51:27;;;;;;;7.10;5.57;;;6.70;99.90;;;;;;5009700;28;20280;-86
2022/02/15 08:53:53;;;;;;;6.37;5.10;;;6.80;99.90;;;;;;5003659;28;20236;-87
2022/02/15 08:56:20;;;;;;;7.30;5.03;;;6.80;99.90;;;;;;5011895;28;20555;-87
2022/02/15 08:58:47;;;;;;;6.30;5.40;;;6.90;99.90;;;;;;5010293;28;20224;-87
2022/02/15 09:01:13;;;;;;;6.13;5.53;;;6.90;99.90;;;;;;5008812;28;20240;-87
2022/02/15 09:03:39;;;;;;;6.90;5.53;;;6.90;99.90;;;;;;5002995;28;20736;-87
2022/02/15 09:06:06;;;;;;;7.00;5.87;;;6.90;99.90;;;;;;5005912;28;20258;-86
2022/02/15 09:08:31;;;;;;;6.87;6.03;;;6.80;99.90;;;;;;5005654;28;20651;-87
2022/02/15 09:10:57;;;;;;;6.63;5.93;;;6.90;99.90;;;;;;4996402;28;20202;-87
2022/02/15 09:13:23;;;;;;;6.90;6.13;;;7.00;99.90;;;;;;5008086;28;20747;-86
2022/02/15 09:15:49;;;;;;;6.03;5.43;;;7.00;99.90;;;;;;5008681;28;20218;-87
2022/02/15 09:18:15;;;;;;;6.17;4.93;;;7.00;99.90;;;;;;5005122;28;20206;-87
2022/02/15 09:20:42;;;;;;;6.13;5.10;;;7.00;99.90;;;;;;5017658;28;20545;-87
2022/02/15 09:23:09;;;;;;;6.70;5.47;;;7.10;99.90;;;;;;5013206;28;20200;-87
2022/02/15 09:25:35;;;;;;;7.43;5.10;;;7.10;99.90;;;;;;5011372;28;20292;-88
2022/02/15 09:28:02;;;;;;;8.00;5.43;;;7.30;99.90;;;;;;5010436;28;20218;-88
2022/02/15 09:30:28;;;;;;;4.97;4.53;;;7.30;99.90;;;;;;5012565;28;20208;-88
2022/02/15 09:32:54;;;;;;;6.53;4.37;;;7.30;99.90;;;;;;5013379;28;20229;-88
2022/02/15 09:35:20;;;;;;;4.47;4.07;;;7.30;99.90;;;;;;5022689;28;20210;-88
2022/02/15 09:37:46;;;;;;;6.70;4.53;;;7.40;99.90;;;;;;5011390;28;20220;-88
2022/02/15 09:40:13;;;;;;;5.97;5.13;;;7.40;99.90;;;;;;5009610;28;20197;-86
2022/02/15 09:42:39;;;;;;;4.93;4.47;;;7.50;99.90;;;;;;5009690;28;20194;-88
2022/02/15 09:45:10;;;;;;;6.03;4.80;;;7.50;99.90;;;;;;5012599;28;20217;-86
2022/02/15 09:47:37;;;;;;;5.43;4.27;;;7.50;99.90;;;;;;5011325;28;20221;-88
2022/02/15 09:50:07;;;;;;;6.13;5.03;;;7.60;99.90;;;;;;5017842;28;20192;-88
2022/02/15 09:52:34;;;;;;;5.40;4.83;;;7.60;99.90;;;;;;5006493;28;20195;-86
2022/02/15 09:55:01;;;;;;;6.23;4.80;;;7.70;99.90;;;;;;5010230;28;20233;-86
2022/02/15 09:57:27;;;;;;;4.87;4.37;;;7.70;99.90;;;;;;5011250;28;20723;-86
2022/02/15 09:59:54;;;;;;;5.63;4.57;;;7.70;99.90;;;;;;5016697;28;20190;-87
2022/02/15 10:02:28;;;;;;;4.37;4.00;;;7.80;99.90;;;;;;5010581;28;20189;-89
2022/02/15 10:04:56;;;;;;;5.97;4.03;;;7.80;99.90;;;;;;5014722;28;20193;-87
2022/02/15 10:07:23;;;;;;;5.13;4.47;;;7.80;99.90;;;;;;5012097;28;20206;-87
2022/02/15 10:09:50;;;;;;;4.73;4.07;;;7.80;99.90;;;;;;5022762;28;20198;-87
2022/02/15 10:12:17;;;;;;;4.67;4.10;;;7.80;99.90;;;;;;5012325;28;20198;-87
2022/02/15 10:14:45;;;;;;;5.17;4.63;;;7.80;99.90;;;;;;5007911;28;20190;-87
2022/02/15 10:17:17;;;;;;;4.67;4.17;;;7.70;99.90;;;;;;5018938;28;20770;-89
2022/02/15 10:19:44;;;;;;;5.03;4.00;;;7.80;99.90;;;;;;5015347;28;20189;-86
2022/02/15 10:22:10;;;;;;;5.67;4.57;;;7.80;99.90;;;;;;5009296;28;20688;-87
2022/02/15 10:24:38;;;;;;;5.10;4.43;;;7.80;99.90;;;;;;5015553;28;20224;-86
2022/02/15 10:27:11;;;;;;;5.27;4.00;;;7.90;99.90;;;;;;5013178;28;20266;-86
2022/02/15 10:29:39;;;;;;;4.23;3.83;;;7.90;99.90;;;;;;5015106;28;20514;-86
2022/02/15 10:32:08;;;;;;;5.10;3.80;;;8.00;99.90;;;;;;5013174;28;20193;-89
2022/02/15 10:34:48;;;;;;;4.60;4.20;;;7.90;99.90;;;;;;5010397;28;20653;-86
2022/02/15 10:37:15;;;;;;;6.53;4.20;;;7.90;99.90;;;;;;5012691;28;20639;-86
2022/02/15 10:39:51;;;;;;;5.57;4.43;;;8.00;99.90;;;;;;5014600;28;20192;-86
2022/02/15 10:42:21;;;;;;;5.63;4.23;;;7.90;99.90;;;;;;5012610;28;20854;-86
2022/02/15 10:45:13;;;;;;;4.40;4.00;;;7.80;99.90;;;;;;5016981;28;20258;-87
2022/02/15 10:47:41;;;;;;;4.60;4.20;;;7.90;99.90;;;;;;5014868;28;20234;-89
2022/02/15 10:50:10;;;;;;;7.10;4.30;;;7.70;99.90;;;;;;5018827;28;20224;-86
2022/02/15 10:52:36;;;;;;;5.13;4.07;;;7.70;99.90;;;;;;5025118;28;20201;-86
2022/02/15 10:55:04;;;;;;;5.67;4.43;;;7.90;99.90;;;;;;5010354;28;20253;-86
2022/02/15 10:57:29;;;;;;;5.53;4.50;;;7.90;99.90;;;;;;5014920;28;20244;-86
2022/02/15 10:59:57;;;;;;;4.37;3.97;;;7.80;99.90;;;;;;5003358;28;21082;-87
2022/02/15 11:02:26;;;;;;;4.70;4.27;;;7.90;99.90;;;;;;5014221;28;20182;-87
2022/02/15 11:04:55;;;;;;;7.50;4.20;;;8.00;99.90;;;;;;5009571;28;20611;-87
2022/02/15 11:07:26;;;;;;;5.67;4.33;;;8.00;99.90;;;;;;5014649;28;20220;-87
2022/02/15 11:10:25;;;;;;;5.67;4.53;;;7.90;99.90;;;;;;5003031;28;20225;-87
2022/02/15 11:13:03;;;;;;;5.10;4.60;;;7.90;99.90;;;;;;5011284;28;20223;-87
2022/02/15 11:15:32;;;;;;;7.97;4.73;;;7.80;99.90;;;;;;5012783;28;20248;-86
2022/02/15 11:18:00;;;;;;;5.57;4.87;;;8.10;99.90;;;;;;5013359;28;20236;-87
2022/02/15 11:20:29;;;;;;;5.30;4.83;;;8.20;99.90;;;;;;5011856;28;20251;-87
2022/02/15 11:22:57;;;;;;;5.93;4.57;;;8.20;99.90;;;;;;5013885;28;20213;-87
2022/02/15 11:25:41;;;;;;;6.17;5.57;;;8.30;99.90;;;;;;5026529;28;20331;-87
2022/02/15 11:28:15;;;;;;;6.87;5.37;;;8.30;99.90;;;;;;5021665;28;20762;-87
2022/02/15 11:30:46;;;;;;;7.27;5.43;;;8.30;99.90;;;;;;5009944;28;20273;-87
2022/02/15 11:33:19;;;;;;;6.53;5.10;;;8.40;99.90;;;;;;5005640;28;20194;-87
2022/02/15 11:36:05;;;;;;;5.97;5.27;;;8.40;99.50;;;;;;5015060;28;20206;-87
2022/02/15 11:38:31;;;;;;;6.17;5.23;;;8.20;99.90;;;;;;5005986;28;20295;-87
2022/02/15 11:41:01;;;;;;;5.23;4.73;;;8.10;99.90;;;;;;5009163;28;20186;-87
2022/02/15 11:43:27;;;;;;;4.90;4.00;;;8.10;99.90;;;;;;5012965;28;20225;-87
2022/02/15 11:45:53;;;;;;;3.77;3.47;;;8.10;99.90;;;;;;5004736;28;20190;-88
2022/02/15 11:48:19;;;;;;;3.70;2.93;;;8.10;99.90;;;;;;5007983;28;20224;-87
2022/02/15 11:50:53;;;;;;;3.00;2.33;;;8.20;99.50;;;;;;5009878;28;20665;-87
2022/02/15 11:53:20;;;;;;;4.30;2.50;;;8.30;96.60;;;;;;5010310;28;20193;-87
2022/02/15 11:55:48;;;;;;;2.37;2.07;;;8.30;97.00;;;;;;5010736;28;20273;-88
2022/02/15 11:58:14;;;;;;;4.30;3.27;;;8.60;93.70;;;;;;5012792;28;20206;-88
2022/02/15 12:00:41;;;;;;;10.60;7.70;;;8.60;90.80;;;;;;5028829;28;20177;-88
2022/02/15 12:03:07;;;;;;;63.30;45.07;;;9.00;88.40;;;;;;5030493;28;20237;-88
2022/02/15 12:05:40;;;;;;;7.10;5.47;;;9.30;86.50;;;;;;5027688;28;20192;-87
2022/02/15 12:08:06;;;;;;;7.13;4.87;;;9.10;87.80;;;;;;5019156;28;20231;-88
2022/02/15 12:10:36;;;;;;;43.57;29.77;;;9.10;86.70;;;;;;5018324;28;20673;-88
2022/02/15 12:13:03;;;;;;;13.60;8.10;;;9.00;86.50;;;;;;5020416;28;20193;-87
2022/02/15 12:15:36;;;;;;;55.40;37.20;;;9.30;86.60;;;;;;5020272;28;20633;-88
2022/02/15 12:18:03;;;;;;;6.03;2.70;;;9.70;84.50;;;;;;5018778;28;20233;-85
2022/02/15 12:20:29;;;;;;;4.57;3.10;;;10.00;84.70;;;;;;5010084;28;20201;-88
2022/02/15 12:22:55;;;;;;;2.53;2.33;;;10.20;83.00;;;;;;5019978;28;20280;-88
2022/02/15 12:25:22;;;;;;;2.70;2.50;;;10.40;82.20;;;;;;5011060;28;20197;-88
2022/02/15 12:27:48;;;;;;;2.90;2.27;;;10.30;85.20;;;;;;5013705;28;20228;-89
2022/02/15 12:30:17;;;;;;;3.37;2.70;;;9.90;84.50;;;;;;5007788;28;20224;-88
2022/02/15 12:32:48;;;;;;;3.47;2.93;;;9.70;85.60;;;;;;5017909;28;20191;-88
2022/02/15 12:35:25;;;;;;;3.20;2.90;;;9.30;87.70;;;;;;5017631;28;20288;-88
2022/02/15 12:37:51;;;;;;;3.67;2.60;;;9.20;88.30;;;;;;5005141;28;20223;-88
2022/02/15 12:40:18;;;;;;;3.50;2.90;;;9.20;88.60;;;;;;5010719;28;20198;-88
2022/02/15 12:42:44;;;;;;;2.53;2.33;;;9.20;88.40;;;;;;5008629;28;20198;-88
2022/02/15 12:45:12;;;;;;;4.87;2.90;;;9.20;87.30;;;;;;5012469;28;20478;-88
2022/02/15 12:47:42;;;;;;;31.30;26.30;;;9.10;87.60;;;;;;5010306;28;20287;-88
2022/02/15 12:50:10;;;;;;;3.97;2.67;;;9.10;89.00;;;;;;5049964;28;20186;-87
2022/02/15 12:52:38;;;;;;;3.70;2.90;;;9.10;89.60;;;;;;5017051;28;20544;-89
2022/02/15 12:55:20;;;;;;;4.63;3.27;;;9.00;90.80;;;;;;5008948;28;20225;-89
2022/02/15 12:57:48;;;;;;;4.30;3.10;;;9.10;88.10;;;;;;5021362;28;20213;-89
2022/02/15 13:00:16;;;;;;;7.90;6.17;;;9.10;89.20;;;;;;5022076;28;20209;-88
2022/02/15 13:02:47;;;;;;;5.17;3.30;;;9.20;88.20;;;;;;5013557;28;20190;-88
2022/02/15 13:05:13;;;;;;;4.63;3.87;;;9.20;90.10;;;;;;5042692;28;20600;-88